createdAt,value
2022-08-09T00:00:04.564Z,4.10
2022-08-09T00:02:33.962Z,6.45
2022-08-09T00:06:15.210Z,3.45
2022-08-09T00:07:49.547Z,4.07
2022-08-09T00:10:21.513Z,5.72
2022-08-09T00:12:51.695Z,2.70
2022-08-09T00:15:19.485Z,9.50
2022-08-09T00:18:05.573Z,3.85
2022-08-09T00:20:32.465Z,6.43
2022-08-09T00:23:53.932Z,3.92
2022-08-09T00:25:51.871Z,5.38
2022-08-09T00:28:19.300Z,3.78
2022-08-09T00:30:48.910Z,5.53
2022-08-09T00:33:15.430Z,4.03
2022-08-09T00:35:43.269Z,4.85
2022-08-09T00:38:12.881Z,3.65
2022-08-09T00:40:39.621Z,4.05
2022-08-09T00:44:19.391Z,5.82
2022-08-09T00:46:06.972Z,6.78
2022-08-09T00:48:34.120Z,3.05
2022-08-09T00:51:11.730Z,6.68
2022-08-09T00:53:41.207Z,5.22
2022-08-09T00:56:09.535Z,7.20
2022-08-09T00:58:36.272Z,3.85
2022-08-09T01:01:07.422Z,3.40
2022-08-09T01:03:46.317Z,8.38
2022-08-09T01:06:18.419Z,6.35
2022-08-09T01:08:51.743Z,5.43
2022-08-09T01:11:28.561Z,4.18
2022-08-09T01:14:01.919Z,4.20
2022-08-09T01:16:31.884Z,6.65
2022-08-09T01:19:02.453Z,5.95
2022-08-09T01:21:45.014Z,6.72
2022-08-09T01:24:24.396Z,3.55
2022-08-09T01:26:57.867Z,4.13
2022-08-09T01:29:28.279Z,4.93
2022-08-09T01:32:30.995Z,4.18
2022-08-09T01:34:43.725Z,7.03
2022-08-09T01:37:10.984Z,6.78
2022-08-09T01:39:40.344Z,5.45
2022-08-09T01:42:11.143Z,7.35
2022-08-09T01:44:39.273Z,8.10
2022-08-09T01:47:06.324Z,7.38
2022-08-09T01:49:38.830Z,5.43
2022-08-09T01:52:09.084Z,7.47
2022-08-09T01:54:38.184Z,6.65
2022-08-09T01:57:08.133Z,8.63
2022-08-09T01:59:51.079Z,11.68
2022-08-09T02:02:20.337Z,6.10
2022-08-09T02:04:49.875Z,6.88
2022-08-09T02:08:40.657Z,9.70
2022-08-09T02:10:07.032Z,7.43
2022-08-09T02:12:35.406Z,8.27
2022-08-09T02:15:06.471Z,7.25
2022-08-09T02:18:00.023Z,10.15
2022-08-09T02:20:26.501Z,6.95
2022-08-09T02:23:01.566Z,12.45
2022-08-09T02:25:29.444Z,8.05
2022-08-09T02:28:03.873Z,7.88
2022-08-09T02:30:37.304Z,6.13
2022-08-09T02:33:07.948Z,6.38
2022-08-09T02:36:02.765Z,7.00
2022-08-09T02:38:29.472Z,6.78
2022-08-09T02:40:59.072Z,7.13
2022-08-09T02:43:26.209Z,7.50
2022-08-09T02:45:58.748Z,7.38
2022-08-09T02:48:31.232Z,8.93
2022-08-09T02:50:59.359Z,6.72
2022-08-09T02:53:31.675Z,9.68
2022-08-09T02:56:02.168Z,10.52
2022-08-09T02:58:36.876Z,7.60
2022-08-09T03:01:08.259Z,7.20
2022-08-09T03:04:17.129Z,6.00
2022-08-09T03:06:25.213Z,6.43
2022-08-09T03:08:54.520Z,6.97
2022-08-09T03:11:29.550Z,11.05
2022-08-09T03:14:10.060Z,8.60
2022-08-09T03:16:41.667Z,6.65
2022-08-09T03:19:14.372Z,10.20
2022-08-09T03:21:58.231Z,7.95
2022-08-09T03:24:26.004Z,9.45
2022-08-09T03:26:59.704Z,8.43
2022-08-09T03:29:29.108Z,8.60
2022-08-09T03:32:04.541Z,7.88
2022-08-09T03:34:34.976Z,11.48
2022-08-09T03:37:10.749Z,8.57
2022-08-09T03:39:55.675Z,9.77
2022-08-09T03:44:52.800Z,8.02
2022-08-09T03:47:24.926Z,11.30
2022-08-09T03:49:58.163Z,8.07
2022-08-09T03:52:25.996Z,12.25
2022-08-09T03:54:54.946Z,8.15
2022-08-09T03:57:23.271Z,9.40
2022-08-09T03:59:53.405Z,12.85
2022-08-09T04:02:26.704Z,9.27
2022-08-09T04:04:55.602Z,8.20
2022-08-09T04:07:22.050Z,11.25
2022-08-09T04:10:00.469Z,8.13
2022-08-09T04:12:39.585Z,10.77
2022-08-09T04:15:11.157Z,12.60
2022-08-09T04:17:38.340Z,10.60
2022-08-09T04:20:08.216Z,10.68
2022-08-09T04:22:34.799Z,11.65
2022-08-09T04:25:08.418Z,6.43
2022-08-09T04:27:41.009Z,10.73
2022-08-09T04:30:09.848Z,6.95
2022-08-09T04:32:39.214Z,8.00
2022-08-09T04:35:13.837Z,8.10
2022-08-09T04:37:46.226Z,7.65
2022-08-09T04:40:19.577Z,8.57
2022-08-09T04:43:00.135Z,5.95
2022-08-09T04:45:28.406Z,7.63
2022-08-09T04:48:04.083Z,10.35
2022-08-09T04:50:38.093Z,8.80
2022-08-09T04:53:13.089Z,10.20
2022-08-09T04:55:58.346Z,11.52
2022-08-09T05:00:52.699Z,9.27
2022-08-09T05:03:39.962Z,8.88
2022-08-09T05:06:09.614Z,8.77
2022-08-09T05:08:36.204Z,8.50
2022-08-09T05:11:02.881Z,11.82
2022-08-09T05:13:29.465Z,12.70
2022-08-09T05:15:59.792Z,9.48
2022-08-09T05:18:50.761Z,10.40
2022-08-09T05:21:24.334Z,9.88
2022-08-09T05:23:57.932Z,17.50
2022-08-09T05:26:35.984Z,16.83
2022-08-09T05:29:04.017Z,11.73
2022-08-09T05:31:44.073Z,9.18
2022-08-09T05:34:16.930Z,11.77
2022-08-09T05:36:47.259Z,7.00
2022-08-09T05:39:14.112Z,9.00
2022-08-09T05:41:55.273Z,11.13
2022-08-09T05:44:22.061Z,9.15
2022-08-09T05:46:55.349Z,7.85
2022-08-09T05:50:25.099Z,10.05
2022-08-09T05:52:10.092Z,9.75
2022-08-09T05:54:37.003Z,11.10
2022-08-09T05:57:06.398Z,10.50
2022-08-09T05:59:32.925Z,12.00
2022-08-09T06:02:00.068Z,10.57
2022-08-09T06:04:34.663Z,8.63
2022-08-09T06:07:01.756Z,11.55
2022-08-09T06:09:54.112Z,10.00
2022-08-09T06:12:16.069Z,11.90
2022-08-09T06:14:43.677Z,9.98
2022-08-09T06:17:10.352Z,10.13
2022-08-09T06:19:36.927Z,11.27
2022-08-09T06:22:03.615Z,11.90
2022-08-09T06:24:31.508Z,9.57
2022-08-09T06:26:58.097Z,8.90
2022-08-09T06:29:26.944Z,10.05
2022-08-09T06:32:08.737Z,12.05
2022-08-09T06:34:40.109Z,10.85
2022-08-09T06:37:10.127Z,13.18
2022-08-09T06:39:48.422Z,14.40
2022-08-09T06:42:28.474Z,8.05
2022-08-09T06:44:57.501Z,9.45
2022-08-09T06:47:24.333Z,8.85
2022-08-09T06:50:14.076Z,10.73
2022-08-09T06:52:39.998Z,8.82
2022-08-09T06:55:10.183Z,12.32
2022-08-09T06:58:02.196Z,8.25
2022-08-09T07:00:51.345Z,10.52
2022-08-09T07:03:12.563Z,7.60
2022-08-09T07:05:58.125Z,7.65
2022-08-09T07:08:27.006Z,8.57
2022-08-09T07:10:58.491Z,7.82
2022-08-09T07:13:29.300Z,7.13
2022-08-09T07:16:43.423Z,8.15
2022-08-09T07:18:42.965Z,10.73
2022-08-09T07:21:09.713Z,9.95
2022-08-09T07:23:46.724Z,7.60
2022-08-09T07:26:24.756Z,7.28
2022-08-09T07:29:07.993Z,8.43
2022-08-09T07:31:38.483Z,9.43
2022-08-09T07:34:19.561Z,7.82
2022-08-09T07:36:48.092Z,7.32
2022-08-09T07:39:20.578Z,5.70
2022-08-09T07:42:02.858Z,8.43
2022-08-09T07:44:32.984Z,9.93
2022-08-09T07:47:16.245Z,8.20
2022-08-09T07:50:05.548Z,7.53
2022-08-09T07:52:29.786Z,10.30
2022-08-09T07:54:57.585Z,6.78
2022-08-09T07:57:35.620Z,10.38
2022-08-09T08:00:03.412Z,8.02
2022-08-09T08:02:30.553Z,8.43
2022-08-09T08:04:57.169Z,7.03
2022-08-09T08:08:43.837Z,6.72
2022-08-09T08:10:11.811Z,6.65
2022-08-09T08:12:43.096Z,6.05
2022-08-09T08:15:11.241Z,5.65
2022-08-09T08:17:53.790Z,8.63
2022-08-09T08:20:30.485Z,5.57
2022-08-09T08:23:01.650Z,5.57
2022-08-09T08:25:39.956Z,6.97
2022-08-09T08:28:14.190Z,7.15
2022-08-09T08:30:41.854Z,5.00
2022-08-09T08:33:11.972Z,5.65
2022-08-09T08:35:58.244Z,4.38
2022-08-09T08:38:27.928Z,4.18
2022-08-09T08:40:55.751Z,3.78
2022-08-09T08:43:23.778Z,3.45
2022-08-09T08:45:53.461Z,3.17
2022-08-09T08:48:31.628Z,5.35
2022-08-09T08:50:58.729Z,4.72
2022-08-09T08:53:32.326Z,6.60
2022-08-09T08:56:04.193Z,7.28
2022-08-09T08:58:32.549Z,3.53
2022-08-09T09:01:03.023Z,2.42
2022-08-09T09:03:37.472Z,3.83
2022-08-09T09:06:05.813Z,3.25
2022-08-09T09:08:40.223Z,3.08
2022-08-09T09:11:08.059Z,2.72
2022-08-09T09:13:54.897Z,2.78
2022-08-09T09:16:30.515Z,1.70
2022-08-09T09:19:22.800Z,1.45
2022-08-09T09:21:58.911Z,2.85
2022-08-09T09:24:28.573Z,2.92
2022-08-09T09:26:56.607Z,1.20
2022-08-09T09:29:45.963Z,3.15
2022-08-09T09:35:01.079Z,2.10
2022-08-09T09:37:31.742Z,2.90
2022-08-09T09:39:59.657Z,1.92
2022-08-09T09:42:32.989Z,5.00
2022-08-09T09:45:03.198Z,2.35
2022-08-09T09:47:30.451Z,2.35
2022-08-09T09:50:13.587Z,2.60
2022-08-09T09:52:53.550Z,3.20
2022-08-09T09:55:27.965Z,5.38
2022-08-09T09:58:02.923Z,1.58
2022-08-09T10:00:34.385Z,1.70
2022-08-09T10:03:11.477Z,3.47
2022-08-09T10:06:04.104Z,4.03
2022-08-09T10:08:31.527Z,2.72
2022-08-09T10:10:58.588Z,2.13
2022-08-09T10:13:43.754Z,2.10
2022-08-09T10:16:58.139Z,2.03
2022-08-09T10:19:00.448Z,1.83
2022-08-09T10:21:29.011Z,1.20
2022-08-09T10:23:56.507Z,2.65
2022-08-09T10:26:24.770Z,0.90
2022-08-09T10:29:37.591Z,3.78
2022-08-09T10:32:37.396Z,1.35
2022-08-09T10:34:32.801Z,4.03
2022-08-09T10:37:00.893Z,4.53
2022-08-09T10:39:28.716Z,1.77
2022-08-09T10:41:55.370Z,1.02
2022-08-09T10:44:23.106Z,0.60
2022-08-09T10:48:13.273Z,1.25
2022-08-09T10:49:58.524Z,1.98
2022-08-09T10:52:35.178Z,0.95
2022-08-09T10:55:18.735Z,1.13
2022-08-09T10:57:45.580Z,2.42
2022-08-09T11:00:33.154Z,1.08
2022-08-09T11:03:13.857Z,1.48
2022-08-09T11:06:05.925Z,1.02
2022-08-09T11:08:47.482Z,3.78
2022-08-09T11:11:14.846Z,6.43
2022-08-09T11:13:50.763Z,0.93
2022-08-09T11:16:35.502Z,0.73
2022-08-09T11:19:08.021Z,2.50
2022-08-09T11:22:05.206Z,1.98
2022-08-09T11:25:03.543Z,2.50
2022-08-09T11:28:03.147Z,1.08
2022-08-09T11:30:33.449Z,1.50
2022-08-09T11:33:02.989Z,1.52
2022-08-09T11:35:34.851Z,1.95
2022-08-09T11:38:14.186Z,2.55
2022-08-09T11:40:41.514Z,1.77
2022-08-09T11:43:14.529Z,2.25
2022-08-09T11:45:43.571Z,3.10
2022-08-09T11:48:26.095Z,0.95
2022-08-09T11:53:00.618Z,1.92
2022-08-09T11:53:59.196Z,3.10
2022-08-09T11:56:41.690Z,1.50
2022-08-09T11:59:11.647Z,2.03
2022-08-09T12:02:17.127Z,2.92
2022-08-09T12:04:32.462Z,1.80
2022-08-09T12:07:08.226Z,2.05
2022-08-09T12:09:36.156Z,3.03
2022-08-09T12:12:12.245Z,3.25
2022-08-09T12:15:03.660Z,1.25
2022-08-09T12:17:34.697Z,3.85
2022-08-09T12:20:19.847Z,1.08
2022-08-09T12:22:52.047Z,1.67
2022-08-09T12:25:36.037Z,0.80
2022-08-09T12:29:10.222Z,1.38
2022-08-09T12:30:57.204Z,1.77
2022-08-09T12:33:23.902Z,1.42
2022-08-09T12:36:05.133Z,1.52
2022-08-09T12:38:53.975Z,1.00
2022-08-09T12:41:24.200Z,1.80
2022-08-09T12:44:06.243Z,1.67
2022-08-09T12:46:34.482Z,2.38
2022-08-09T12:49:03.606Z,2.20
2022-08-09T12:52:01.255Z,2.00
2022-08-09T12:54:18.143Z,1.10
2022-08-09T12:56:51.220Z,0.95
2022-08-09T12:59:21.025Z,1.85
2022-08-09T13:01:49.898Z,1.60
2022-08-09T13:04:36.184Z,1.90
2022-08-09T13:07:10.880Z,2.38
2022-08-09T13:09:40.943Z,3.25
2022-08-09T13:12:10.330Z,2.88
2022-08-09T13:14:45.455Z,1.48
2022-08-09T13:17:16.196Z,1.38
2022-08-09T13:20:07.389Z,1.47
2022-08-09T13:23:00.196Z,3.80
2022-08-09T13:25:42.098Z,1.95
2022-08-09T13:28:09.662Z,1.20
2022-08-09T13:31:11.201Z,0.93
2022-08-09T13:33:23.871Z,1.35
2022-08-09T13:36:39.025Z,2.97
2022-08-09T13:38:56.715Z,1.38
2022-08-09T13:41:59.441Z,2.95
2022-08-09T13:44:13.774Z,1.05
2022-08-09T13:47:29.355Z,2.67
2022-08-09T13:49:37.714Z,2.03
2022-08-09T13:52:09.241Z,2.00
2022-08-09T13:54:36.233Z,0.75
2022-08-09T13:57:14.405Z,2.35
2022-08-09T13:59:58.199Z,3.10
2022-08-09T14:02:26.153Z,1.65
2022-08-09T14:04:59.816Z,1.35
2022-08-09T14:07:30.258Z,0.75
2022-08-09T14:10:09.115Z,6.00
2022-08-09T14:12:45.494Z,3.92
2022-08-09T14:16:06.251Z,2.53
2022-08-09T14:18:16.464Z,0.88
2022-08-09T14:20:45.082Z,1.50
2022-08-09T14:23:22.783Z,0.50
2022-08-09T14:26:05.925Z,1.65
2022-08-09T14:28:34.554Z,6.03
2022-08-09T14:31:01.040Z,0.30
2022-08-09T14:33:27.533Z,1.10
2022-08-09T14:35:55.656Z,0.70
2022-08-09T14:38:22.160Z,1.58
2022-08-09T14:41:04.182Z,0.88
2022-08-09T14:43:47.547Z,0.50
2022-08-09T14:46:54.647Z,2.00
2022-08-09T14:49:06.213Z,2.40
2022-08-09T14:51:42.208Z,0.32
2022-08-09T14:54:09.565Z,2.22
2022-08-09T14:56:36.118Z,1.90
2022-08-09T14:59:23.943Z,1.00
2022-08-09T15:01:50.480Z,1.23
2022-08-09T15:04:16.951Z,1.70
2022-08-09T15:06:49.733Z,2.45
2022-08-09T15:09:30.505Z,2.47
2022-08-09T15:12:03.499Z,0.50
2022-08-09T15:14:33.853Z,0.30
2022-08-09T15:17:00.672Z,0.70
2022-08-09T15:19:36.252Z,0.88
2022-08-09T15:22:03.202Z,2.08
2022-08-09T15:24:29.867Z,0.80
2022-08-09T15:26:56.397Z,0.95
2022-08-09T15:30:55.572Z,1.25
2022-08-09T15:32:29.118Z,0.77
2022-08-09T15:34:59.799Z,0.52
2022-08-09T15:37:37.384Z,1.27
2022-08-09T15:40:06.053Z,3.10
2022-08-09T15:42:39.660Z,1.23
2022-08-09T15:45:10.008Z,1.33
2022-08-09T15:47:52.781Z,0.63
2022-08-09T15:50:28.847Z,3.72
2022-08-09T15:53:07.085Z,1.25
2022-08-09T15:55:34.519Z,3.20
2022-08-09T15:58:26.757Z,4.43
2022-08-09T16:00:53.963Z,0.70
2022-08-09T16:03:29.642Z,0.32
2022-08-09T16:06:05.337Z,0.35
2022-08-09T16:08:31.814Z,1.10
2022-08-09T16:10:58.773Z,0.80
2022-08-09T16:14:02.582Z,1.67
2022-08-09T16:16:18.685Z,1.95
2022-08-09T16:18:47.063Z,0.30
2022-08-09T16:21:17.050Z,2.42
2022-08-09T16:23:55.455Z,0.43
2022-08-09T16:26:35.358Z,1.75
2022-08-09T16:29:06.071Z,0.88
2022-08-09T16:32:18.137Z,1.95
2022-08-09T16:34:26.460Z,1.88
2022-08-09T16:36:55.428Z,2.13
2022-08-09T16:39:22.844Z,1.73
2022-08-09T16:42:02.900Z,0.38
2022-08-09T16:44:31.501Z,3.33
2022-08-09T16:47:01.735Z,0.82
2022-08-09T16:50:31.487Z,1.27
2022-08-09T16:52:19.155Z,1.63
2022-08-09T16:54:45.905Z,0.47
2022-08-09T16:57:12.707Z,2.13
2022-08-09T16:59:43.900Z,0.88
2022-08-09T17:02:17.782Z,1.45
2022-08-09T17:04:50.936Z,2.08
2022-08-09T17:08:44.011Z,1.10
2022-08-09T17:10:07.190Z,4.15
2022-08-09T17:12:35.756Z,0.30
2022-08-09T17:15:30.558Z,1.70
2022-08-09T17:17:50.548Z,1.45
2022-08-09T17:20:29.670Z,0.40
2022-08-09T17:23:04.189Z,1.67
2022-08-09T17:25:31.414Z,4.07
2022-08-09T17:28:03.773Z,1.83
2022-08-09T17:30:30.751Z,1.23
2022-08-09T17:33:01.397Z,0.98
2022-08-09T17:35:34.025Z,3.00
2022-08-09T17:38:11.770Z,1.20
2022-08-09T17:40:47.191Z,0.68
2022-08-09T17:43:33.679Z,3.72
2022-08-09T17:46:05.920Z,1.23
2022-08-09T17:48:33.107Z,1.25
2022-08-09T17:51:10.036Z,0.43
2022-08-09T17:53:51.433Z,1.00
2022-08-09T17:56:19.912Z,2.58
2022-08-09T17:58:47.205Z,2.45
2022-08-09T18:01:22.148Z,2.05
2022-08-09T18:03:49.629Z,2.90
2022-08-09T18:06:31.068Z,1.52
2022-08-09T18:08:59.219Z,2.08
2022-08-09T18:11:25.718Z,1.02
2022-08-09T18:13:55.620Z,1.10
2022-08-09T18:16:29.397Z,1.90
2022-08-09T18:18:57.093Z,0.80
2022-08-09T18:21:24.966Z,1.25
2022-08-09T18:24:10.554Z,1.83
2022-08-09T18:26:38.145Z,4.50
2022-08-09T18:30:38.507Z,2.72
2022-08-09T18:31:55.698Z,1.33
2022-08-09T18:34:23.949Z,0.90
2022-08-09T18:36:53.231Z,1.75
2022-08-09T18:39:22.095Z,2.67
2022-08-09T18:41:53.141Z,1.55
2022-08-09T18:44:20.405Z,0.90
2022-08-09T18:47:07.947Z,2.13
2022-08-09T18:49:43.089Z,1.65
2022-08-09T18:52:15.782Z,1.38
2022-08-09T18:54:49.559Z,0.73
2022-08-09T18:57:19.933Z,3.50
2022-08-09T18:59:54.421Z,2.92
2022-08-09T19:05:14.930Z,2.40
2022-08-09T19:08:03.751Z,1.25
2022-08-09T19:10:37.174Z,5.97
2022-08-09T19:13:22.094Z,0.80
2022-08-09T19:15:50.517Z,2.88
2022-08-09T19:18:32.590Z,2.28
2022-08-09T19:21:01.072Z,0.70
2022-08-09T19:24:36.356Z,0.80
2022-08-09T19:26:17.005Z,0.68
2022-08-09T19:28:48.639Z,1.65
2022-08-09T19:31:15.550Z,1.83
2022-08-09T19:33:43.435Z,1.70
2022-08-09T19:36:11.766Z,2.28
2022-08-09T19:38:41.737Z,1.60
2022-08-09T19:41:09.481Z,1.05
2022-08-09T19:44:00.909Z,2.05
2022-08-09T19:46:35.326Z,0.98
2022-08-09T19:50:06.645Z,1.23
2022-08-09T19:51:55.349Z,1.90
2022-08-09T19:54:25.235Z,0.70
2022-08-09T19:56:51.925Z,1.52
2022-08-09T19:59:58.966Z,0.95
2022-08-09T20:04:12.445Z,1.48
2022-08-09T20:04:55.304Z,0.93
2022-08-09T20:07:22.499Z,1.48
2022-08-09T20:09:50.639Z,3.22
2022-08-09T20:12:30.131Z,3.38
2022-08-09T20:15:04.624Z,1.42
2022-08-09T20:17:41.484Z,1.48
2022-08-09T20:20:15.367Z,1.15
2022-08-09T20:22:46.518Z,1.85
2022-08-09T20:25:14.685Z,1.52
2022-08-09T20:27:49.480Z,1.88
2022-08-09T20:30:17.974Z,1.30
2022-08-09T20:32:52.398Z,1.55
2022-08-09T20:35:19.450Z,2.63
2022-08-09T20:38:21.508Z,1.88
2022-08-09T20:40:33.968Z,1.35
2022-08-09T20:43:18.098Z,1.65
2022-08-09T20:46:00.358Z,1.05
2022-08-09T20:48:35.884Z,1.77
2022-08-09T20:51:03.105Z,3.20
2022-08-09T20:53:37.356Z,1.92
2022-08-09T20:56:07.206Z,4.53
2022-08-09T20:58:35.807Z,1.30
2022-08-09T21:01:33.023Z,7.30
2022-08-09T21:04:07.961Z,1.52
2022-08-09T21:06:41.553Z,1.13
2022-08-09T21:09:13.634Z,2.55
2022-08-09T21:14:30.973Z,3.60
2022-08-09T21:16:57.984Z,3.55
2022-08-09T21:20:18.315Z,1.13
2022-08-09T21:22:36.021Z,2.40
2022-08-09T21:25:18.363Z,1.30
2022-08-09T21:28:01.348Z,1.25
2022-08-09T21:30:28.171Z,1.98
2022-08-09T21:32:54.743Z,3.10
2022-08-09T21:35:23.792Z,2.15
2022-08-09T21:37:59.240Z,3.47
2022-08-09T21:40:30.676Z,1.92
2022-08-09T21:43:00.851Z,1.15
2022-08-09T21:45:28.026Z,1.10
2022-08-09T21:47:55.696Z,1.60
2022-08-09T21:50:36.212Z,0.95
2022-08-09T21:53:05.991Z,1.50
2022-08-09T21:55:34.110Z,1.35
2022-08-09T21:58:02.558Z,1.38
2022-08-09T22:00:32.113Z,1.85
2022-08-09T22:03:00.277Z,1.95
2022-08-09T22:05:35.448Z,1.45
2022-08-09T22:08:03.334Z,2.80
2022-08-09T22:10:30.591Z,1.23
2022-08-09T22:12:57.825Z,1.98
2022-08-09T22:15:34.786Z,1.58
2022-08-09T22:18:02.185Z,3.13
2022-08-09T22:20:31.238Z,1.23
2022-08-09T22:22:58.090Z,2.20
2022-08-09T22:26:07.194Z,4.90
2022-08-09T22:28:11.043Z,1.40
2022-08-09T22:30:48.528Z,1.20
2022-08-09T22:33:17.221Z,2.20
2022-08-09T22:36:01.652Z,1.02
2022-08-09T22:38:30.006Z,1.20
2022-08-09T22:40:58.514Z,2.50
2022-08-09T22:44:01.201Z,2.33
2022-08-09T22:48:15.519Z,1.75
2022-08-09T22:48:59.967Z,2.10
2022-08-09T22:51:32.048Z,1.98
2022-08-09T22:54:03.095Z,4.63
2022-08-09T22:56:34.393Z,2.08
2022-08-09T22:59:01.209Z,1.30
2022-08-09T23:01:34.063Z,1.65
2022-08-09T23:04:04.066Z,4.68
2022-08-09T23:06:51.300Z,2.28
2022-08-09T23:09:17.808Z,1.45
2022-08-09T23:11:44.288Z,1.40
2022-08-09T23:14:17.197Z,1.85
2022-08-09T23:16:45.613Z,1.42
2022-08-09T23:19:12.097Z,1.20
2022-08-09T23:21:39.312Z,2.28
2022-08-09T23:24:07.250Z,1.70
2022-08-09T23:26:34.040Z,2.65
2022-08-09T23:29:00.509Z,1.15
2022-08-09T23:31:27.103Z,2.45
2022-08-09T23:33:54.944Z,2.00
2022-08-09T23:36:21.429Z,2.47
2022-08-09T23:38:49.175Z,1.90
2022-08-09T23:41:28.614Z,1.67
2022-08-09T23:43:56.453Z,2.50
2022-08-09T23:46:23.016Z,3.00
2022-08-09T23:48:49.503Z,1.67
2022-08-09T23:51:17.655Z,1.60
2022-08-09T23:53:44.153Z,1.98
2022-08-09T23:56:10.673Z,2.22
2022-08-09T23:58:37.215Z,1.75
